Loyalsockville, Pennsylvania
Current Conditions -  °F | °C
As of 1:54 AM on Saturday 29 Nov 2014 (Local Time) from KIPT Reporting Station
Broken Clouds Broken Clouds  
Wind Chill: 20°   Ceiling: 9000
Heat Index: 20°   Visibility: 10mi
Dew Point: 14°   Wind: 0mph
Humidity: 78%   Direction: NA
Pressure: 30.27"   Gusts: NA
Location:  41.2816°N, 76.8857°W
Report Text: KIPT 290654Z AUTO 00000KT 10SM SCT075 BKN090 BKN100 M07/M10 A3027 RMK AO2 SLP257 T10671100
Loading
Personal Weather Stations






























Interactive Weather Map New forecast layout! Learn more

10-Day Weather Forecast

Advertisements
Track Severe Weather on mobile